sensor_id;sensor_type;location;lat;lon;timestamp;P1;durP1;ratioP1;P2;durP2;ratioP2
15831;SDS011;8016;49.928;9.372;2023-05-16T00:00:27;8.33;;;7.53;;
15831;SDS011;8016;49.928;9.372;2023-05-16T00:02:53;8.57;;;7.77;;
15831;SDS011;8016;49.928;9.372;2023-05-16T00:05:19;8.03;;;7.33;;
15831;SDS011;8016;49.928;9.372;2023-05-16T00:07:45;8.17;;;7.17;;
15831;SDS011;8016;49.928;9.372;2023-05-16T00:10:11;9.50;;;7.87;;
15831;SDS011;8016;49.928;9.372;2023-05-16T00:12:38;8.63;;;7.83;;
15831;SDS011;8016;49.928;9.372;2023-05-16T00:15:07;10.67;;;7.73;;
15831;SDS011;8016;49.928;9.372;2023-05-16T00:17:36;8.20;;;7.40;;
15831;SDS011;8016;49.928;9.372;2023-05-16T00:20:02;8.60;;;7.80;;
15831;SDS011;8016;49.928;9.372;2023-05-16T00:22:34;9.27;;;7.80;;
15831;SDS011;8016;49.928;9.372;2023-05-16T00:25:00;9.03;;;8.10;;
15831;SDS011;8016;49.928;9.372;2023-05-16T00:27:27;8.90;;;8.10;;
15831;SDS011;8016;49.928;9.372;2023-05-16T00:29:53;9.87;;;7.40;;
15831;SDS011;8016;49.928;9.372;2023-05-16T00:32:19;8.10;;;7.40;;
15831;SDS011;8016;49.928;9.372;2023-05-16T00:34:45;8.33;;;7.50;;
15831;SDS011;8016;49.928;9.372;2023-05-16T00:37:11;8.20;;;7.37;;
15831;SDS011;8016;49.928;9.372;2023-05-16T00:39:37;9.60;;;7.80;;
15831;SDS011;8016;49.928;9.372;2023-05-16T00:42:04;8.33;;;7.57;;
15831;SDS011;8016;49.928;9.372;2023-05-16T00:44:30;9.20;;;8.20;;
15831;SDS011;8016;49.928;9.372;2023-05-16T00:46:56;8.57;;;7.77;;
15831;SDS011;8016;49.928;9.372;2023-05-16T00:49:24;9.00;;;8.00;;
15831;SDS011;8016;49.928;9.372;2023-05-16T00:51:50;7.87;;;7.17;;
15831;SDS011;8016;49.928;9.372;2023-05-16T00:54:16;11.53;;;7.83;;
15831;SDS011;8016;49.928;9.372;2023-05-16T00:56:43;8.70;;;7.97;;
15831;SDS011;8016;49.928;9.372;2023-05-16T00:59:09;8.27;;;7.53;;
15831;SDS011;8016;49.928;9.372;2023-05-16T01:01:35;9.80;;;8.90;;
15831;SDS011;8016;49.928;9.372;2023-05-16T01:04:01;9.07;;;8.20;;
15831;SDS011;8016;49.928;9.372;2023-05-16T01:06:27;8.97;;;8.17;;
15831;SDS011;8016;49.928;9.372;2023-05-16T01:08:53;10.20;;;9.13;;
15831;SDS011;8016;49.928;9.372;2023-05-16T01:16:41;9.23;;;8.37;;
15831;SDS011;8016;49.928;9.372;2023-05-16T01:19:13;8.73;;;7.83;;
15831;SDS011;8016;49.928;9.372;2023-05-16T01:24:13;8.03;;;7.30;;
15831;SDS011;8016;49.928;9.372;2023-05-16T01:26:40;8.77;;;7.97;;
15831;SDS011;8016;49.928;9.372;2023-05-16T01:29:06;8.87;;;8.07;;
15831;SDS011;8016;49.928;9.372;2023-05-16T01:31:32;8.70;;;7.80;;
15831;SDS011;8016;49.928;9.372;2023-05-16T01:33:58;10.57;;;8.43;;
15831;SDS011;8016;49.928;9.372;2023-05-16T01:36:25;8.93;;;8.03;;
15831;SDS011;8016;49.928;9.372;2023-05-16T01:39:40;9.23;;;8.43;;
15831;SDS011;8016;49.928;9.372;2023-05-16T01:44:23;9.20;;;8.40;;
15831;SDS011;8016;49.928;9.372;2023-05-16T01:46:51;10.73;;;9.70;;
15831;SDS011;8016;49.928;9.372;2023-05-16T01:49:22;16.97;;;15.37;;
15831;SDS011;8016;49.928;9.372;2023-05-16T01:51:55;14.03;;;12.73;;
15831;SDS011;8016;49.928;9.372;2023-05-16T01:54:24;13.47;;;12.17;;
15831;SDS011;8016;49.928;9.372;2023-05-16T01:56:51;19.93;;;17.93;;
15831;SDS011;8016;49.928;9.372;2023-05-16T01:59:18;21.10;;;18.87;;
15831;SDS011;8016;49.928;9.372;2023-05-16T02:01:45;20.53;;;18.43;;
15831;SDS011;8016;49.928;9.372;2023-05-16T02:04:11;19.00;;;17.07;;
15831;SDS011;8016;49.928;9.372;2023-05-16T02:06:39;18.03;;;16.23;;
15831;SDS011;8016;49.928;9.372;2023-05-16T02:09:05;19.77;;;16.93;;
15831;SDS011;8016;49.928;9.372;2023-05-16T02:11:31;19.63;;;17.47;;
15831;SDS011;8016;49.928;9.372;2023-05-16T02:13:57;21.90;;;17.57;;
15831;SDS011;8016;49.928;9.372;2023-05-16T02:16:23;17.47;;;15.70;;
15831;SDS011;8016;49.928;9.372;2023-05-16T02:18:49;18.97;;;16.97;;
15831;SDS011;8016;49.928;9.372;2023-05-16T02:21:15;19.50;;;16.93;;
15831;SDS011;8016;49.928;9.372;2023-05-16T02:23:41;21.37;;;16.53;;
15831;SDS011;8016;49.928;9.372;2023-05-16T02:26:07;19.80;;;17.77;;
15831;SDS011;8016;49.928;9.372;2023-05-16T02:28:33;18.53;;;16.73;;
15831;SDS011;8016;49.928;9.372;2023-05-16T02:30:59;19.13;;;17.10;;
15831;SDS011;8016;49.928;9.372;2023-05-16T02:33:27;19.93;;;15.70;;
15831;SDS011;8016;49.928;9.372;2023-05-16T02:35:53;19.77;;;17.73;;
15831;SDS011;8016;49.928;9.372;2023-05-16T02:38:19;20.40;;;18.43;;
15831;SDS011;8016;49.928;9.372;2023-05-16T02:40:46;21.07;;;18.63;;
15831;SDS011;8016;49.928;9.372;2023-05-16T02:43:12;20.67;;;18.77;;
15831;SDS011;8016;49.928;9.372;2023-05-16T02:45:38;21.23;;;19.13;;
15831;SDS011;8016;49.928;9.372;2023-05-16T02:48:04;22.40;;;19.70;;
15831;SDS011;8016;49.928;9.372;2023-05-16T02:50:30;21.40;;;19.30;;
15831;SDS011;8016;49.928;9.372;2023-05-16T02:52:56;21.77;;;19.50;;
15831;SDS011;8016;49.928;9.372;2023-05-16T02:55:24;20.93;;;18.93;;
15831;SDS011;8016;49.928;9.372;2023-05-16T02:57:50;24.55;;;22.15;;
15831;SDS011;8016;49.928;9.372;2023-05-16T03:00:16;23.27;;;20.93;;
15831;SDS011;8016;49.928;9.372;2023-05-16T03:02:42;23.17;;;20.83;;
15831;SDS011;8016;49.928;9.372;2023-05-16T03:05:09;29.27;;;21.27;;
15831;SDS011;8016;49.928;9.372;2023-05-16T03:07:35;30.17;;;21.50;;
15831;SDS011;8016;49.928;9.372;2023-05-16T03:10:02;22.83;;;20.47;;
15831;SDS011;8016;49.928;9.372;2023-05-16T03:12:28;23.47;;;20.87;;
15831;SDS011;8016;49.928;9.372;2023-05-16T03:14:54;23.70;;;21.23;;
15831;SDS011;8016;49.928;9.372;2023-05-16T03:17:20;23.20;;;20.80;;
15831;SDS011;8016;49.928;9.372;2023-05-16T03:19:46;22.47;;;20.17;;
15831;SDS011;8016;49.928;9.372;2023-05-16T03:22:13;23.13;;;20.63;;
15831;SDS011;8016;49.928;9.372;2023-05-16T03:24:39;24.60;;;21.67;;
15831;SDS011;8016;49.928;9.372;2023-05-16T03:27:05;23.23;;;20.80;;
15831;SDS011;8016;49.928;9.372;2023-05-16T03:29:30;24.77;;;21.13;;
15831;SDS011;8016;49.928;9.372;2023-05-16T03:31:56;24.80;;;22.30;;
15831;SDS011;8016;49.928;9.372;2023-05-16T03:34:22;25.43;;;21.77;;
15831;SDS011;8016;49.928;9.372;2023-05-16T03:36:48;23.33;;;21.03;;
15831;SDS011;8016;49.928;9.372;2023-05-16T03:39:15;24.00;;;21.37;;
15831;SDS011;8016;49.928;9.372;2023-05-16T03:41:41;23.83;;;21.07;;
15831;SDS011;8016;49.928;9.372;2023-05-16T03:44:07;23.57;;;20.83;;
15831;SDS011;8016;49.928;9.372;2023-05-16T03:46:33;24.13;;;21.63;;
15831;SDS011;8016;49.928;9.372;2023-05-16T03:49:00;22.20;;;19.90;;
15831;SDS011;8016;49.928;9.372;2023-05-16T03:51:26;21.83;;;19.53;;
15831;SDS011;8016;49.928;9.372;2023-05-16T03:53:52;22.47;;;20.10;;
15831;SDS011;8016;49.928;9.372;2023-05-16T03:56:18;23.33;;;20.70;;
15831;SDS011;8016;49.928;9.372;2023-05-16T03:58:45;22.00;;;19.67;;
15831;SDS011;8016;49.928;9.372;2023-05-16T04:01:11;22.53;;;20.23;;
15831;SDS011;8016;49.928;9.372;2023-05-16T04:03:37;23.57;;;21.37;;
15831;SDS011;8016;49.928;9.372;2023-05-16T04:06:03;21.60;;;19.40;;
15831;SDS011;8016;49.928;9.372;2023-05-16T04:08:29;23.40;;;20.90;;
15831;SDS011;8016;49.928;9.372;2023-05-16T04:10:55;25.07;;;22.33;;
15831;SDS011;8016;49.928;9.372;2023-05-16T04:13:21;24.47;;;21.83;;
15831;SDS011;8016;49.928;9.372;2023-05-16T04:15:47;24.20;;;21.77;;
15831;SDS011;8016;49.928;9.372;2023-05-16T04:18:13;23.13;;;20.73;;
15831;SDS011;8016;49.928;9.372;2023-05-16T04:20:41;23.90;;;20.30;;
15831;SDS011;8016;49.928;9.372;2023-05-16T04:23:07;24.10;;;21.30;;
15831;SDS011;8016;49.928;9.372;2023-05-16T04:25:34;26.33;;;20.87;;
15831;SDS011;8016;49.928;9.372;2023-05-16T04:28:01;22.87;;;20.47;;
15831;SDS011;8016;49.928;9.372;2023-05-16T04:30:27;21.10;;;18.90;;
15831;SDS011;8016;49.928;9.372;2023-05-16T04:32:53;21.80;;;19.27;;
15831;SDS011;8016;49.928;9.372;2023-05-16T04:35:19;21.27;;;19.07;;
15831;SDS011;8016;49.928;9.372;2023-05-16T04:37:46;20.57;;;18.37;;
15831;SDS011;8016;49.928;9.372;2023-05-16T04:40:12;24.27;;;19.67;;
15831;SDS011;8016;49.928;9.372;2023-05-16T04:42:38;19.67;;;17.77;;
15831;SDS011;8016;49.928;9.372;2023-05-16T04:45:05;20.60;;;18.40;;
15831;SDS011;8016;49.928;9.372;2023-05-16T04:47:34;20.63;;;18.43;;
15831;SDS011;8016;49.928;9.372;2023-05-16T04:50:01;19.77;;;17.80;;
15831;SDS011;8016;49.928;9.372;2023-05-16T04:52:27;20.73;;;18.63;;
15831;SDS011;8016;49.928;9.372;2023-05-16T04:54:53;20.70;;;18.60;;
15831;SDS011;8016;49.928;9.372;2023-05-16T04:57:19;21.17;;;18.27;;
15831;SDS011;8016;49.928;9.372;2023-05-16T04:59:45;22.17;;;18.27;;
15831;SDS011;8016;49.928;9.372;2023-05-16T05:02:11;20.43;;;18.37;;
15831;SDS011;8016;49.928;9.372;2023-05-16T05:04:37;23.07;;;19.33;;
15831;SDS011;8016;49.928;9.372;2023-05-16T05:07:03;20.13;;;17.90;;
15831;SDS011;8016;49.928;9.372;2023-05-16T05:09:29;20.37;;;17.07;;
15831;SDS011;8016;49.928;9.372;2023-05-16T05:11:55;18.93;;;17.03;;
15831;SDS011;8016;49.928;9.372;2023-05-16T05:14:21;18.77;;;16.87;;
15831;SDS011;8016;49.928;9.372;2023-05-16T05:16:46;22.73;;;17.47;;
15831;SDS011;8016;49.928;9.372;2023-05-16T05:19:12;18.83;;;16.83;;
15831;SDS011;8016;49.928;9.372;2023-05-16T05:21:38;18.70;;;16.80;;
15831;SDS011;8016;49.928;9.372;2023-05-16T05:24:05;18.97;;;17.07;;
15831;SDS011;8016;49.928;9.372;2023-05-16T05:26:31;18.27;;;16.23;;
15831;SDS011;8016;49.928;9.372;2023-05-16T05:28:57;17.83;;;16.03;;
15831;SDS011;8016;49.928;9.372;2023-05-16T05:31:22;20.70;;;16.77;;
15831;SDS011;8016;49.928;9.372;2023-05-16T05:33:48;21.00;;;16.53;;
15831;SDS011;8016;49.928;9.372;2023-05-16T05:36:14;18.30;;;16.50;;
15831;SDS011;8016;49.928;9.372;2023-05-16T05:38:40;19.40;;;16.73;;
15831;SDS011;8016;49.928;9.372;2023-05-16T05:41:06;22.00;;;16.47;;
15831;SDS011;8016;49.928;9.372;2023-05-16T05:43:32;19.37;;;17.33;;
15831;SDS011;8016;49.928;9.372;2023-05-16T05:45:59;18.20;;;16.37;;
15831;SDS011;8016;49.928;9.372;2023-05-16T05:48:25;17.67;;;15.80;;
15831;SDS011;8016;49.928;9.372;2023-05-16T05:50:52;17.30;;;15.30;;
15831;SDS011;8016;49.928;9.372;2023-05-16T05:53:18;17.90;;;16.10;;
15831;SDS011;8016;49.928;9.372;2023-05-16T05:55:44;17.93;;;16.13;;
15831;SDS011;8016;49.928;9.372;2023-05-16T05:58:11;22.07;;;15.80;;
15831;SDS011;8016;49.928;9.372;2023-05-16T06:00:36;18.33;;;16.43;;
15831;SDS011;8016;49.928;9.372;2023-05-16T06:03:03;18.40;;;16.40;;
15831;SDS011;8016;49.928;9.372;2023-05-16T06:05:29;17.33;;;15.63;;
15831;SDS011;8016;49.928;9.372;2023-05-16T06:07:55;17.90;;;16.10;;
15831;SDS011;8016;49.928;9.372;2023-05-16T06:10:21;17.93;;;15.93;;
15831;SDS011;8016;49.928;9.372;2023-05-16T06:12:47;19.17;;;16.77;;
15831;SDS011;8016;49.928;9.372;2023-05-16T06:15:13;16.53;;;14.83;;
15831;SDS011;8016;49.928;9.372;2023-05-16T06:17:39;16.10;;;14.50;;
15831;SDS011;8016;49.928;9.372;2023-05-16T06:20:06;17.40;;;15.43;;
15831;SDS011;8016;49.928;9.372;2023-05-16T06:22:32;15.87;;;13.60;;
15831;SDS011;8016;49.928;9.372;2023-05-16T06:24:58;15.17;;;13.70;;
15831;SDS011;8016;49.928;9.372;2023-05-16T06:27:24;16.80;;;14.43;;
15831;SDS011;8016;49.928;9.372;2023-05-16T06:29:50;16.70;;;14.30;;
15831;SDS011;8016;49.928;9.372;2023-05-16T06:32:16;15.13;;;13.73;;
15831;SDS011;8016;49.928;9.372;2023-05-16T06:34:42;16.60;;;14.90;;
15831;SDS011;8016;49.928;9.372;2023-05-16T06:37:08;17.70;;;14.83;;
15831;SDS011;8016;49.928;9.372;2023-05-16T06:39:34;17.03;;;15.23;;
15831;SDS011;8016;49.928;9.372;2023-05-16T06:42:00;20.67;;;15.10;;
15831;SDS011;8016;49.928;9.372;2023-05-16T06:44:26;16.23;;;13.93;;
15831;SDS011;8016;49.928;9.372;2023-05-16T06:46:52;16.57;;;14.90;;
15831;SDS011;8016;49.928;9.372;2023-05-16T06:49:18;16.60;;;14.37;;
15831;SDS011;8016;49.928;9.372;2023-05-16T06:51:44;15.67;;;13.43;;
15831;SDS011;8016;49.928;9.372;2023-05-16T06:54:10;14.57;;;13.17;;
15831;SDS011;8016;49.928;9.372;2023-05-16T06:56:36;15.23;;;12.37;;
15831;SDS011;8016;49.928;9.372;2023-05-16T06:59:02;15.00;;;13.50;;
15831;SDS011;8016;49.928;9.372;2023-05-16T07:01:28;16.10;;;14.60;;
15831;SDS011;8016;49.928;9.372;2023-05-16T07:03:54;18.73;;;14.90;;
15831;SDS011;8016;49.928;9.372;2023-05-16T07:06:20;18.80;;;14.83;;
15831;SDS011;8016;49.928;9.372;2023-05-16T07:08:46;17.77;;;15.87;;
15831;SDS011;8016;49.928;9.372;2023-05-16T07:11:12;17.10;;;15.30;;
15831;SDS011;8016;49.928;9.372;2023-05-16T07:13:38;17.33;;;15.70;;
15831;SDS011;8016;49.928;9.372;2023-05-16T07:16:04;17.27;;;15.57;;
15831;SDS011;8016;49.928;9.372;2023-05-16T07:18:31;17.00;;;15.20;;
15831;SDS011;8016;49.928;9.372;2023-05-16T07:20:57;16.93;;;15.23;;
15831;SDS011;8016;49.928;9.372;2023-05-16T07:23:23;18.45;;;16.65;;
15831;SDS011;8016;49.928;9.372;2023-05-16T07:25:49;18.13;;;16.30;;
15831;SDS011;8016;49.928;9.372;2023-05-16T07:28:17;17.30;;;15.40;;
15831;SDS011;8016;49.928;9.372;2023-05-16T07:30:43;17.77;;;15.97;;
15831;SDS011;8016;49.928;9.372;2023-05-16T07:33:10;17.27;;;15.47;;
15831;SDS011;8016;49.928;9.372;2023-05-16T07:35:36;24.77;;;22.10;;
15831;SDS011;8016;49.928;9.372;2023-05-16T07:38:03;14.97;;;13.47;;
15831;SDS011;8016;49.928;9.372;2023-05-16T07:40:29;15.63;;;13.63;;
15831;SDS011;8016;49.928;9.372;2023-05-16T07:42:54;24.20;;;19.53;;
15831;SDS011;8016;49.928;9.372;2023-05-16T07:45:20;13.50;;;12.27;;
15831;SDS011;8016;49.928;9.372;2023-05-16T07:47:46;13.73;;;12.43;;
15831;SDS011;8016;49.928;9.372;2023-05-16T07:50:12;14.47;;;12.97;;
15831;SDS011;8016;49.928;9.372;2023-05-16T07:52:38;14.60;;;13.03;;
15831;SDS011;8016;49.928;9.372;2023-05-16T07:55:06;16.80;;;15.03;;
15831;SDS011;8016;49.928;9.372;2023-05-16T07:57:32;15.23;;;13.63;;
15831;SDS011;8016;49.928;9.372;2023-05-16T07:59:58;19.70;;;17.57;;
15831;SDS011;8016;49.928;9.372;2023-05-16T08:02:24;13.83;;;12.43;;
15831;SDS011;8016;49.928;9.372;2023-05-16T08:04:54;14.23;;;12.30;;
15831;SDS011;8016;49.928;9.372;2023-05-16T08:07:21;14.93;;;12.87;;
15831;SDS011;8016;49.928;9.372;2023-05-16T08:09:47;14.23;;;12.83;;
15831;SDS011;8016;49.928;9.372;2023-05-16T08:12:12;16.17;;;13.13;;
15831;SDS011;8016;49.928;9.372;2023-05-16T08:14:38;10.90;;;9.80;;
15831;SDS011;8016;49.928;9.372;2023-05-16T08:17:05;12.90;;;11.20;;
15831;SDS011;8016;49.928;9.372;2023-05-16T08:19:31;11.27;;;8.43;;
15831;SDS011;8016;49.928;9.372;2023-05-16T08:21:57;8.70;;;6.53;;
15831;SDS011;8016;49.928;9.372;2023-05-16T08:24:23;7.63;;;5.67;;
15831;SDS011;8016;49.928;9.372;2023-05-16T08:26:49;6.73;;;5.90;;
15831;SDS011;8016;49.928;9.372;2023-05-16T08:29:15;10.63;;;9.73;;
15831;SDS011;8016;49.928;9.372;2023-05-16T08:31:41;5.50;;;4.87;;
15831;SDS011;8016;49.928;9.372;2023-05-16T08:34:07;11.87;;;8.67;;
15831;SDS011;8016;49.928;9.372;2023-05-16T08:36:34;5.63;;;3.77;;
15831;SDS011;8016;49.928;9.372;2023-05-16T08:39:00;4.60;;;4.20;;
15831;SDS011;8016;49.928;9.372;2023-05-16T08:41:26;16.00;;;14.40;;
15831;SDS011;8016;49.928;9.372;2023-05-16T08:43:52;10.53;;;7.03;;
15831;SDS011;8016;49.928;9.372;2023-05-16T08:46:20;6.23;;;5.50;;
15831;SDS011;8016;49.928;9.372;2023-05-16T08:48:46;6.23;;;4.70;;
15831;SDS011;8016;49.928;9.372;2023-05-16T08:51:17;5.10;;;4.67;;
15831;SDS011;8016;49.928;9.372;2023-05-16T08:53:44;4.30;;;3.90;;
15831;SDS011;8016;49.928;9.372;2023-05-16T08:56:11;6.10;;;4.17;;
15831;SDS011;8016;49.928;9.372;2023-05-16T08:58:38;3.73;;;3.10;;
15831;SDS011;8016;49.928;9.372;2023-05-16T09:01:04;3.37;;;3.07;;
15831;SDS011;8016;49.928;9.372;2023-05-16T09:03:34;3.17;;;2.88;;
15831;SDS011;8016;49.928;9.372;2023-05-16T09:06:00;4.27;;;3.57;;
15831;SDS011;8016;49.928;9.372;2023-05-16T09:08:26;3.70;;;3.40;;
15831;SDS011;8016;49.928;9.372;2023-05-16T09:10:52;3.70;;;2.97;;
15831;SDS011;8016;49.928;9.372;2023-05-16T09:13:18;2.60;;;2.40;;
15831;SDS011;8016;49.928;9.372;2023-05-16T09:15:44;3.23;;;2.10;;
15831;SDS011;8016;49.928;9.372;2023-05-16T09:18:11;2.40;;;2.20;;
15831;SDS011;8016;49.928;9.372;2023-05-16T09:20:43;3.50;;;2.10;;
15831;SDS011;8016;49.928;9.372;2023-05-16T09:23:10;2.10;;;1.90;;
15831;SDS011;8016;49.928;9.372;2023-05-16T09:25:36;2.53;;;2.20;;
15831;SDS011;8016;49.928;9.372;2023-05-16T09:28:04;4.27;;;2.87;;
15831;SDS011;8016;49.928;9.372;2023-05-16T09:30:35;3.20;;;2.20;;
15831;SDS011;8016;49.928;9.372;2023-05-16T09:33:05;3.27;;;2.40;;
15831;SDS011;8016;49.928;9.372;2023-05-16T09:35:31;3.10;;;2.10;;
15831;SDS011;8016;49.928;9.372;2023-05-16T09:37:57;2.10;;;1.90;;
15831;SDS011;8016;49.928;9.372;2023-05-16T09:40:23;2.17;;;1.80;;
15831;SDS011;8016;49.928;9.372;2023-05-16T09:43:02;2.00;;;1.90;;
15831;SDS011;8016;49.928;9.372;2023-05-16T09:45:29;5.60;;;4.23;;
15831;SDS011;8016;49.928;9.372;2023-05-16T09:48:06;1.63;;;1.53;;
15831;SDS011;8016;49.928;9.372;2023-05-16T09:50:35;1.70;;;1.40;;
15831;SDS011;8016;49.928;9.372;2023-05-16T09:53:02;1.60;;;1.50;;
15831;SDS011;8016;49.928;9.372;2023-05-16T09:55:28;2.57;;;1.50;;
15831;SDS011;8016;49.928;9.372;2023-05-16T09:57:54;1.30;;;1.20;;
15831;SDS011;8016;49.928;9.372;2023-05-16T10:00:21;5.10;;;2.43;;
15831;SDS011;8016;49.928;9.372;2023-05-16T10:02:47;2.87;;;1.20;;
15831;SDS011;8016;49.928;9.372;2023-05-16T10:05:14;1.20;;;1.10;;
15831;SDS011;8016;49.928;9.372;2023-05-16T10:07:41;1.63;;;1.53;;
15831;SDS011;8016;49.928;9.372;2023-05-16T10:10:08;3.60;;;1.10;;
15831;SDS011;8016;49.928;9.372;2023-05-16T10:12:34;1.50;;;0.90;;
15831;SDS011;8016;49.928;9.372;2023-05-16T10:15:02;1.67;;;1.40;;
15831;SDS011;8016;49.928;9.372;2023-05-16T10:17:29;4.57;;;2.47;;
15831;SDS011;8016;49.928;9.372;2023-05-16T10:19:56;3.47;;;2.37;;
15831;SDS011;8016;49.928;9.372;2023-05-16T10:22:22;3.07;;;1.77;;
15831;SDS011;8016;49.928;9.372;2023-05-16T10:27:18;5.00;;;4.50;;
15831;SDS011;8016;49.928;9.372;2023-05-16T10:29:44;1.13;;;1.03;;
15831;SDS011;8016;49.928;9.372;2023-05-16T10:32:10;2.33;;;1.07;;
15831;SDS011;8016;49.928;9.372;2023-05-16T10:34:37;2.37;;;1.30;;
15831;SDS011;8016;49.928;9.372;2023-05-16T10:37:04;2.30;;;0.90;;
15831;SDS011;8016;49.928;9.372;2023-05-16T10:39:30;2.67;;;1.10;;
15831;SDS011;8016;49.928;9.372;2023-05-16T10:41:57;7.90;;;1.63;;
15831;SDS011;8016;49.928;9.372;2023-05-16T10:44:24;2.23;;;1.00;;
15831;SDS011;8016;49.928;9.372;2023-05-16T10:46:50;1.60;;;1.30;;
15831;SDS011;8016;49.928;9.372;2023-05-16T10:49:20;1.87;;;1.07;;
15831;SDS011;8016;49.928;9.372;2023-05-16T10:51:48;5.50;;;1.40;;
15831;SDS011;8016;49.928;9.372;2023-05-16T10:54:32;2.83;;;1.23;;
15831;SDS011;8016;49.928;9.372;2023-05-16T10:56:58;3.30;;;1.10;;
15831;SDS011;8016;49.928;9.372;2023-05-16T10:59:28;4.20;;;1.13;;
15831;SDS011;8016;49.928;9.372;2023-05-16T11:01:55;3.10;;;1.10;;
15831;SDS011;8016;49.928;9.372;2023-05-16T11:04:21;4.27;;;1.50;;
15831;SDS011;8016;49.928;9.372;2023-05-16T11:06:51;2.67;;;1.50;;
15831;SDS011;8016;49.928;9.372;2023-05-16T11:09:21;1.73;;;0.80;;
15831;SDS011;8016;49.928;9.372;2023-05-16T11:14:36;2.93;;;1.20;;
15831;SDS011;8016;49.928;9.372;2023-05-16T11:17:21;4.90;;;1.73;;
15831;SDS011;8016;49.928;9.372;2023-05-16T11:19:49;3.97;;;1.70;;
15831;SDS011;8016;49.928;9.372;2023-05-16T11:24:48;4.10;;;1.57;;
15831;SDS011;8016;49.928;9.372;2023-05-16T11:27:18;3.67;;;1.33;;
15831;SDS011;8016;49.928;9.372;2023-05-16T11:29:45;3.40;;;1.50;;
15831;SDS011;8016;49.928;9.372;2023-05-16T11:32:11;5.27;;;1.40;;
15831;SDS011;8016;49.928;9.372;2023-05-16T11:34:37;3.97;;;1.57;;
15831;SDS011;8016;49.928;9.372;2023-05-16T11:37:03;3.47;;;1.73;;
15831;SDS011;8016;49.928;9.372;2023-05-16T11:39:30;3.80;;;1.50;;
15831;SDS011;8016;49.928;9.372;2023-05-16T11:41:56;5.00;;;1.60;;
15831;SDS011;8016;49.928;9.372;2023-05-16T11:44:23;3.87;;;1.37;;
15831;SDS011;8016;49.928;9.372;2023-05-16T11:46:48;4.90;;;1.30;;
15831;SDS011;8016;49.928;9.372;2023-05-16T11:49:14;1.87;;;1.03;;
15831;SDS011;8016;49.928;9.372;2023-05-16T11:51:42;4.57;;;1.63;;
15831;SDS011;8016;49.928;9.372;2023-05-16T11:54:08;5.03;;;1.50;;
15831;SDS011;8016;49.928;9.372;2023-05-16T11:56:34;5.57;;;1.53;;
15831;SDS011;8016;49.928;9.372;2023-05-16T11:59:01;3.87;;;1.63;;
15831;SDS011;8016;49.928;9.372;2023-05-16T12:01:30;5.07;;;1.40;;
15831;SDS011;8016;49.928;9.372;2023-05-16T12:03:56;4.20;;;1.40;;
15831;SDS011;8016;49.928;9.372;2023-05-16T12:06:22;2.60;;;1.23;;
15831;SDS011;8016;49.928;9.372;2023-05-16T12:08:49;3.77;;;1.80;;
15831;SDS011;8016;49.928;9.372;2023-05-16T12:11:15;2.03;;;1.40;;
15831;SDS011;8016;49.928;9.372;2023-05-16T12:13:41;4.63;;;1.57;;
15831;SDS011;8016;49.928;9.372;2023-05-16T12:16:08;6.03;;;1.77;;
15831;SDS011;8016;49.928;9.372;2023-05-16T12:18:35;4.93;;;1.50;;
15831;SDS011;8016;49.928;9.372;2023-05-16T12:21:03;4.03;;;1.87;;
15831;SDS011;8016;49.928;9.372;2023-05-16T12:23:29;3.57;;;1.33;;
15831;SDS011;8016;49.928;9.372;2023-05-16T12:25:57;8.03;;;1.63;;
15831;SDS011;8016;49.928;9.372;2023-05-16T12:28:25;3.57;;;1.20;;
15831;SDS011;8016;49.928;9.372;2023-05-16T12:30:55;3.73;;;1.50;;
15831;SDS011;8016;49.928;9.372;2023-05-16T12:33:21;2.57;;;1.17;;
15831;SDS011;8016;49.928;9.372;2023-05-16T12:35:47;4.20;;;1.23;;
15831;SDS011;8016;49.928;9.372;2023-05-16T12:38:15;6.47;;;1.97;;
15831;SDS011;8016;49.928;9.372;2023-05-16T12:40:42;11.83;;;1.83;;
15831;SDS011;8016;49.928;9.372;2023-05-16T12:43:41;5.13;;;1.90;;
15831;SDS011;8016;49.928;9.372;2023-05-16T12:46:00;4.00;;;1.13;;
15831;SDS011;8016;49.928;9.372;2023-05-16T12:48:33;5.03;;;1.30;;
15831;SDS011;8016;49.928;9.372;2023-05-16T12:51:20;3.43;;;1.50;;
15831;SDS011;8016;49.928;9.372;2023-05-16T12:53:46;3.60;;;1.43;;
15831;SDS011;8016;49.928;9.372;2023-05-16T12:56:12;6.77;;;1.17;;
15831;SDS011;8016;49.928;9.372;2023-05-16T12:58:39;12.37;;;7.50;;
15831;SDS011;8016;49.928;9.372;2023-05-16T13:01:05;4.27;;;1.30;;
15831;SDS011;8016;49.928;9.372;2023-05-16T13:03:32;5.10;;;1.77;;
15831;SDS011;8016;49.928;9.372;2023-05-16T13:05:58;10.37;;;5.83;;
15831;SDS011;8016;49.928;9.372;2023-05-16T13:08:24;6.93;;;1.50;;
15831;SDS011;8016;49.928;9.372;2023-05-16T13:10:50;6.10;;;3.50;;
15831;SDS011;8016;49.928;9.372;2023-05-16T13:13:16;4.13;;;1.83;;
15831;SDS011;8016;49.928;9.372;2023-05-16T13:15:45;4.10;;;1.27;;
15831;SDS011;8016;49.928;9.372;2023-05-16T13:18:12;4.93;;;1.30;;
15831;SDS011;8016;49.928;9.372;2023-05-16T13:20:38;4.67;;;1.40;;
15831;SDS011;8016;49.928;9.372;2023-05-16T13:23:04;4.47;;;2.03;;
15831;SDS011;8016;49.928;9.372;2023-05-16T13:25:33;4.30;;;1.20;;
15831;SDS011;8016;49.928;9.372;2023-05-16T13:27:59;4.80;;;1.57;;
15831;SDS011;8016;49.928;9.372;2023-05-16T13:30:25;4.07;;;1.50;;
15831;SDS011;8016;49.928;9.372;2023-05-16T13:32:52;2.53;;;1.73;;
15831;SDS011;8016;49.928;9.372;2023-05-16T13:35:18;4.73;;;1.40;;
15831;SDS011;8016;49.928;9.372;2023-05-16T13:37:45;5.93;;;1.80;;
15831;SDS011;8016;49.928;9.372;2023-05-16T13:40:11;5.05;;;1.95;;
15831;SDS011;8016;49.928;9.372;2023-05-16T13:42:37;3.77;;;1.23;;
15831;SDS011;8016;49.928;9.372;2023-05-16T13:45:03;4.57;;;1.77;;
15831;SDS011;8016;49.928;9.372;2023-05-16T13:47:29;3.37;;;1.77;;
15831;SDS011;8016;49.928;9.372;2023-05-16T13:49:56;5.33;;;1.50;;
15831;SDS011;8016;49.928;9.372;2023-05-16T13:52:23;3.30;;;1.40;;
15831;SDS011;8016;49.928;9.372;2023-05-16T13:54:49;5.33;;;1.30;;
15831;SDS011;8016;49.928;9.372;2023-05-16T13:57:16;6.13;;;1.70;;
15831;SDS011;8016;49.928;9.372;2023-05-16T13:59:41;3.30;;;1.60;;
15831;SDS011;8016;49.928;9.372;2023-05-16T14:02:07;3.50;;;1.10;;
15831;SDS011;8016;49.928;9.372;2023-05-16T14:04:33;8.33;;;5.20;;
15831;SDS011;8016;49.928;9.372;2023-05-16T14:06:59;6.97;;;1.90;;
15831;SDS011;8016;49.928;9.372;2023-05-16T14:09:25;4.33;;;1.60;;
15831;SDS011;8016;49.928;9.372;2023-05-16T14:11:51;4.17;;;1.73;;
15831;SDS011;8016;49.928;9.372;2023-05-16T14:14:17;3.30;;;1.30;;
15831;SDS011;8016;49.928;9.372;2023-05-16T14:16:43;6.87;;;1.57;;
15831;SDS011;8016;49.928;9.372;2023-05-16T14:19:10;3.00;;;1.40;;
15831;SDS011;8016;49.928;9.372;2023-05-16T14:21:36;4.73;;;1.27;;
15831;SDS011;8016;49.928;9.372;2023-05-16T14:24:02;3.33;;;1.23;;
15831;SDS011;8016;49.928;9.372;2023-05-16T14:26:28;4.43;;;1.37;;
15831;SDS011;8016;49.928;9.372;2023-05-16T14:28:56;4.23;;;1.33;;
15831;SDS011;8016;49.928;9.372;2023-05-16T14:31:22;4.07;;;1.17;;
15831;SDS011;8016;49.928;9.372;2023-05-16T14:33:48;4.87;;;1.53;;
15831;SDS011;8016;49.928;9.372;2023-05-16T14:36:14;3.60;;;1.37;;
15831;SDS011;8016;49.928;9.372;2023-05-16T14:38:40;4.67;;;1.47;;
15831;SDS011;8016;49.928;9.372;2023-05-16T14:41:06;3.60;;;1.53;;
15831;SDS011;8016;49.928;9.372;2023-05-16T14:43:32;2.60;;;1.10;;
15831;SDS011;8016;49.928;9.372;2023-05-16T14:45:58;2.77;;;1.20;;
15831;SDS011;8016;49.928;9.372;2023-05-16T14:48:24;3.53;;;2.20;;
15831;SDS011;8016;49.928;9.372;2023-05-16T14:50:50;4.57;;;1.60;;
15831;SDS011;8016;49.928;9.372;2023-05-16T14:53:17;5.70;;;1.20;;
15831;SDS011;8016;49.928;9.372;2023-05-16T14:55:43;4.40;;;1.80;;
15831;SDS011;8016;49.928;9.372;2023-05-16T14:58:09;4.83;;;1.83;;
15831;SDS011;8016;49.928;9.372;2023-05-16T15:00:35;3.57;;;1.87;;
15831;SDS011;8016;49.928;9.372;2023-05-16T15:03:01;5.77;;;1.37;;